createdAt,value
2022-10-15T00:00:51.811Z,15.40
2022-10-15T00:03:18.572Z,15.40
2022-10-15T00:05:45.498Z,15.40
2022-10-15T00:08:12.408Z,15.50
2022-10-15T00:10:39.336Z,15.50
2022-10-15T00:13:06.665Z,15.50
2022-10-15T00:15:38.660Z,15.60
2022-10-15T00:18:05.355Z,15.50
2022-10-15T00:20:32.012Z,15.50
2022-10-15T00:22:58.649Z,15.50
2022-10-15T00:25:25.314Z,15.50
2022-10-15T00:27:51.940Z,15.50
2022-10-15T00:30:18.662Z,15.50
2022-10-15T00:32:45.272Z,15.50
2022-10-15T00:35:11.949Z,15.40
2022-10-15T00:37:38.579Z,15.50
2022-10-15T00:40:06.065Z,15.50
2022-10-15T00:42:32.717Z,15.50
2022-10-15T00:45:00.300Z,15.50
2022-10-15T00:47:38.856Z,15.50
2022-10-15T00:50:38.022Z,15.40
2022-10-15T00:53:09.378Z,15.40
2022-10-15T00:55:40.409Z,15.40
2022-10-15T00:58:16.474Z,15.40
2022-10-15T01:00:43.162Z,15.40
2022-10-15T01:03:12.587Z,15.40
2022-10-15T01:05:40.170Z,15.40
2022-10-15T01:08:06.756Z,15.40
2022-10-15T01:10:43.922Z,15.40
2022-10-15T01:13:27.450Z,15.40
2022-10-15T01:16:02.930Z,15.40
2022-10-15T01:19:00.020Z,15.40
2022-10-15T01:21:38.942Z,15.40
2022-10-15T01:24:35.056Z,15.40
2022-10-15T01:27:34.719Z,15.40
2022-10-15T01:30:38.990Z,15.40
2022-10-15T01:33:26.729Z,15.40
2022-10-15T01:36:04.110Z,15.40
2022-10-15T01:38:47.030Z,15.40
2022-10-15T01:41:23.312Z,15.40
2022-10-15T01:44:09.083Z,15.40
2022-10-15T01:46:47.700Z,15.40
2022-10-15T01:49:21.203Z,15.40
2022-10-15T01:51:50.707Z,15.40
2022-10-15T01:54:19.616Z,15.40
2022-10-15T01:56:49.841Z,15.40
2022-10-15T01:59:22.809Z,15.40
2022-10-15T02:01:49.535Z,15.40
2022-10-15T02:04:22.041Z,15.40
2022-10-15T02:06:57.473Z,15.40
2022-10-15T02:09:43.160Z,15.40
2022-10-15T02:12:13.149Z,15.40
2022-10-15T02:15:05.389Z,15.30
2022-10-15T02:17:38.551Z,15.30
2022-10-15T02:20:17.355Z,15.30
2022-10-15T02:22:50.271Z,15.40
2022-10-15T02:25:21.173Z,15.30
2022-10-15T02:27:50.371Z,15.30
2022-10-15T02:30:18.136Z,15.30
2022-10-15T02:32:50.864Z,15.30
2022-10-15T02:35:19.916Z,15.30
2022-10-15T02:37:49.908Z,15.30
2022-10-15T02:40:16.802Z,15.40
2022-10-15T02:42:43.408Z,15.40
2022-10-15T02:45:10.334Z,15.40
2022-10-15T02:47:36.951Z,15.30
2022-10-15T02:50:04.515Z,15.30
2022-10-15T02:52:31.122Z,15.40
2022-10-15T02:54:57.698Z,15.30
2022-10-15T02:57:24.599Z,15.30
2022-10-15T02:59:51.427Z,15.40
2022-10-15T03:02:19.331Z,15.30
2022-10-15T03:04:46.291Z,15.30
2022-10-15T03:07:14.082Z,15.40
2022-10-15T03:09:40.687Z,15.40
2022-10-15T03:12:07.480Z,15.30
2022-10-15T03:14:34.305Z,15.40
2022-10-15T03:17:00.912Z,15.40
2022-10-15T03:19:27.548Z,15.40
2022-10-15T03:21:54.130Z,15.40
2022-10-15T03:24:20.729Z,15.40
2022-10-15T03:26:47.388Z,15.40
2022-10-15T03:29:14.115Z,15.40
2022-10-15T03:31:40.804Z,15.40
2022-10-15T03:34:07.441Z,15.40
2022-10-15T03:36:34.033Z,15.40
2022-10-15T03:39:00.643Z,15.40
2022-10-15T03:41:27.239Z,15.30
2022-10-15T03:43:53.880Z,15.30
2022-10-15T03:46:20.713Z,15.30
2022-10-15T03:48:50.706Z,15.30
2022-10-15T03:51:21.960Z,15.30
2022-10-15T03:53:51.374Z,15.30
2022-10-15T03:56:18.007Z,15.30
2022-10-15T03:58:44.680Z,15.30
2022-10-15T04:01:17.616Z,15.30
2022-10-15T04:03:44.352Z,15.30
2022-10-15T04:06:10.994Z,15.30
2022-10-15T04:08:37.682Z,15.30
2022-10-15T04:11:04.263Z,15.30
2022-10-15T04:13:31.031Z,15.30
2022-10-15T04:15:57.624Z,15.30
2022-10-15T04:18:24.255Z,15.30
2022-10-15T04:20:51.082Z,15.30
2022-10-15T04:23:17.890Z,15.40
2022-10-15T04:25:46.014Z,15.40
2022-10-15T04:28:12.644Z,15.30
2022-10-15T04:30:39.266Z,15.30
2022-10-15T04:33:05.862Z,15.30
2022-10-15T04:35:34.880Z,15.40
2022-10-15T04:38:01.951Z,15.40
2022-10-15T04:40:28.755Z,15.40
2022-10-15T04:42:55.340Z,15.40
2022-10-15T04:45:21.939Z,15.40
2022-10-15T04:47:48.577Z,15.40
2022-10-15T04:50:15.422Z,15.40
2022-10-15T04:52:42.103Z,15.40
2022-10-15T04:55:09.037Z,15.40
2022-10-15T04:57:35.622Z,15.40
2022-10-15T05:00:02.217Z,15.40
2022-10-15T05:02:28.913Z,15.50
2022-10-15T05:04:55.604Z,15.40
2022-10-15T05:07:22.519Z,15.40
2022-10-15T05:09:49.480Z,15.40
2022-10-15T05:12:16.111Z,15.40
2022-10-15T05:14:42.675Z,15.40
2022-10-15T05:17:09.313Z,15.50
2022-10-15T05:19:36.020Z,15.40
2022-10-15T05:22:02.619Z,15.50
2022-10-15T05:24:29.232Z,15.50
2022-10-15T05:26:55.833Z,15.50
2022-10-15T05:29:22.428Z,15.50
2022-10-15T05:31:52.145Z,15.50
2022-10-15T05:34:18.841Z,15.50
2022-10-15T05:36:45.427Z,15.50
2022-10-15T05:39:12.266Z,15.50
2022-10-15T05:41:38.960Z,15.50
2022-10-15T05:44:05.939Z,15.50
2022-10-15T05:46:32.590Z,15.50
2022-10-15T05:48:59.522Z,15.50
2022-10-15T05:51:27.528Z,15.50
2022-10-15T05:53:55.165Z,15.40
2022-10-15T05:56:22.099Z,15.50
2022-10-15T05:58:49.012Z,15.40
2022-10-15T06:01:15.889Z,15.50
2022-10-15T06:03:43.429Z,15.50
2022-10-15T06:06:15.413Z,15.40
2022-10-15T06:08:42.280Z,15.50
2022-10-15T06:11:09.700Z,15.50
2022-10-15T06:13:41.731Z,15.50
2022-10-15T06:16:09.275Z,15.50
2022-10-15T06:18:36.880Z,15.40
2022-10-15T06:21:03.924Z,15.50
2022-10-15T06:23:30.612Z,15.40
2022-10-15T06:25:57.231Z,15.40
2022-10-15T06:28:23.904Z,15.40
2022-10-15T06:30:50.567Z,15.40
2022-10-15T06:33:17.357Z,15.40
2022-10-15T06:35:44.252Z,15.40
2022-10-15T06:38:11.395Z,15.40
2022-10-15T06:40:38.778Z,15.40
2022-10-15T06:43:08.053Z,15.40
2022-10-15T06:45:37.200Z,15.40
2022-10-15T06:48:05.100Z,15.40
2022-10-15T06:50:33.249Z,15.40
2022-10-15T06:53:00.194Z,15.40
2022-10-15T06:55:28.848Z,15.40
2022-10-15T06:57:56.311Z,15.40
2022-10-15T07:00:24.012Z,15.40
2022-10-15T07:02:51.353Z,15.40
2022-10-15T07:05:18.949Z,15.40
2022-10-15T07:07:56.106Z,15.30
2022-10-15T07:10:23.584Z,15.40
2022-10-15T07:12:50.264Z,15.40
2022-10-15T07:15:17.407Z,15.40
2022-10-15T07:18:01.987Z,15.40
2022-10-15T07:20:31.916Z,15.40
2022-10-15T07:22:59.901Z,15.40
2022-10-15T07:25:27.421Z,15.50
2022-10-15T07:27:55.224Z,15.50
2022-10-15T07:30:23.411Z,15.50
2022-10-15T07:32:50.336Z,15.50
2022-10-15T07:35:17.194Z,15.50
2022-10-15T07:37:43.805Z,15.50
2022-10-15T07:40:11.148Z,15.50
2022-10-15T07:42:37.798Z,15.60
2022-10-15T07:45:04.801Z,15.60
2022-10-15T07:47:31.827Z,15.60
2022-10-15T07:49:58.474Z,15.70
2022-10-15T07:52:25.325Z,15.70
2022-10-15T07:54:52.291Z,15.70
2022-10-15T07:57:19.651Z,15.70
2022-10-15T07:59:46.233Z,15.80
2022-10-15T08:02:17.969Z,15.70
2022-10-15T08:04:44.561Z,15.70
2022-10-15T08:07:11.274Z,15.70
2022-10-15T08:09:38.115Z,15.70
2022-10-15T08:12:06.775Z,15.70
2022-10-15T08:14:34.881Z,15.70
2022-10-15T08:17:05.488Z,15.70
2022-10-15T08:19:32.392Z,15.70
2022-10-15T08:21:59.172Z,15.70
2022-10-15T08:24:25.803Z,15.80
2022-10-15T08:26:52.488Z,15.70
2022-10-15T08:29:19.076Z,15.70
2022-10-15T08:31:45.760Z,15.70
2022-10-15T08:34:12.514Z,15.70
2022-10-15T08:36:39.123Z,15.70
2022-10-15T08:39:07.220Z,15.80
2022-10-15T08:41:59.530Z,15.80
2022-10-15T08:44:49.944Z,15.80
2022-10-15T08:47:39.136Z,15.80
2022-10-15T08:50:40.483Z,15.90
2022-10-15T08:53:14.122Z,15.80
2022-10-15T08:55:44.249Z,16.10
2022-10-15T08:58:40.375Z,15.90
2022-10-15T09:01:22.152Z,15.90
2022-10-15T09:04:30.466Z,16.00
2022-10-15T09:07:29.285Z,16.00
2022-10-15T09:10:12.403Z,16.10
2022-10-15T09:13:04.474Z,16.10
2022-10-15T09:15:50.343Z,16.10
2022-10-15T09:18:23.156Z,16.20
2022-10-15T09:20:50.935Z,16.20
2022-10-15T09:23:23.048Z,16.30
2022-10-15T09:26:02.219Z,16.30
2022-10-15T09:28:38.503Z,16.30
2022-10-15T09:31:09.047Z,16.30
2022-10-15T09:33:47.671Z,16.30
2022-10-15T09:36:17.305Z,16.40
2022-10-15T09:39:12.675Z,16.40
2022-10-15T09:41:39.483Z,16.50
2022-10-15T09:44:13.510Z,16.50
2022-10-15T09:46:48.024Z,16.60
2022-10-15T09:49:23.455Z,16.60
2022-10-15T09:52:08.918Z,16.60
2022-10-15T09:55:03.614Z,16.70
2022-10-15T09:57:33.102Z,16.70
2022-10-15T10:00:01.839Z,16.70
2022-10-15T10:02:30.091Z,16.70
2022-10-15T10:04:57.080Z,16.70
2022-10-15T10:07:37.021Z,16.60
2022-10-15T10:10:26.865Z,16.70
2022-10-15T10:12:55.816Z,16.80
2022-10-15T10:15:28.403Z,16.70
2022-10-15T10:17:56.762Z,16.80
2022-10-15T10:20:28.935Z,16.80
2022-10-15T10:23:01.750Z,16.90
2022-10-15T10:25:43.454Z,16.90
2022-10-15T10:28:11.548Z,16.90
2022-10-15T10:30:48.992Z,17.00
2022-10-15T10:33:25.731Z,17.00
2022-10-15T10:35:53.392Z,17.00
2022-10-15T10:38:41.250Z,17.10
2022-10-15T10:41:10.187Z,17.10
2022-10-15T10:43:51.964Z,17.00
2022-10-15T10:46:20.352Z,17.10
2022-10-15T10:48:52.104Z,17.10
2022-10-15T10:51:27.047Z,17.20
2022-10-15T10:53:57.318Z,17.20
2022-10-15T10:56:42.885Z,17.20
2022-10-15T10:59:15.652Z,17.30
2022-10-15T11:01:42.552Z,17.30
2022-10-15T11:04:21.284Z,17.30
2022-10-15T11:07:24.686Z,17.30
2022-10-15T11:09:57.736Z,17.40
2022-10-15T11:12:34.662Z,17.40
2022-10-15T11:15:31.734Z,17.40
2022-10-15T11:18:33.711Z,17.30
2022-10-15T11:21:09.622Z,17.30
2022-10-15T11:23:51.298Z,17.40
2022-10-15T11:26:46.008Z,17.40
2022-10-15T11:30:00.099Z,17.40
2022-10-15T11:32:54.979Z,17.40
2022-10-15T11:35:58.488Z,17.40
2022-10-15T11:38:39.526Z,17.40
2022-10-15T11:41:08.914Z,17.40
2022-10-15T11:44:05.772Z,17.40
2022-10-15T11:47:03.820Z,17.30
2022-10-15T11:50:04.569Z,17.40
2022-10-15T11:52:37.687Z,17.40
2022-10-15T11:55:16.048Z,17.40
2022-10-15T11:57:44.517Z,17.40
2022-10-15T12:00:27.624Z,17.50
2022-10-15T12:02:55.769Z,17.50
2022-10-15T12:05:35.681Z,17.50
2022-10-15T12:10:34.184Z,17.50
2022-10-15T12:13:19.299Z,17.50
2022-10-15T12:15:54.006Z,17.50
2022-10-15T12:18:43.484Z,17.50
2022-10-15T12:21:39.080Z,17.50
2022-10-15T12:24:26.605Z,17.50
2022-10-15T12:26:53.255Z,17.60
2022-10-15T12:29:27.044Z,17.60
2022-10-15T12:31:58.144Z,17.70
2022-10-15T12:34:45.020Z,17.70
2022-10-15T12:37:19.857Z,17.60
2022-10-15T12:39:54.099Z,17.60
2022-10-15T12:42:30.567Z,17.50
2022-10-15T12:45:00.449Z,17.50
2022-10-15T12:47:47.836Z,17.50
2022-10-15T12:50:26.474Z,17.50
2022-10-15T12:52:58.066Z,17.50
2022-10-15T12:55:30.367Z,17.60
2022-10-15T12:57:58.885Z,17.70
2022-10-15T13:00:29.993Z,17.70
2022-10-15T13:03:08.770Z,17.60
2022-10-15T13:05:36.772Z,17.50
2022-10-15T13:08:11.883Z,17.50
2022-10-15T13:10:49.796Z,17.60
2022-10-15T13:13:24.560Z,17.60
2022-10-15T13:16:02.493Z,17.70
2022-10-15T13:18:31.392Z,17.70
2022-10-15T13:20:59.196Z,17.60
2022-10-15T13:23:32.063Z,17.70
2022-10-15T13:26:29.974Z,17.80
2022-10-15T13:28:59.544Z,18.00
2022-10-15T13:31:32.459Z,18.10
2022-10-15T13:34:10.957Z,18.10
2022-10-15T13:36:39.570Z,18.10
2022-10-15T13:39:19.488Z,18.20
2022-10-15T13:41:46.292Z,18.20
2022-10-15T13:44:24.522Z,18.20
2022-10-15T13:46:51.368Z,18.10
2022-10-15T13:49:20.434Z,18.10
2022-10-15T13:51:50.925Z,18.00
2022-10-15T13:54:22.390Z,18.00
2022-10-15T13:57:01.732Z,18.00
2022-10-15T13:59:30.496Z,17.90
2022-10-15T14:02:01.121Z,18.00
2022-10-15T14:04:30.159Z,18.10
2022-10-15T14:07:27.211Z,18.30
2022-10-15T14:09:54.354Z,18.50
2022-10-15T14:12:21.019Z,18.90
2022-10-15T14:14:49.088Z,19.10
2022-10-15T14:17:26.654Z,19.30
2022-10-15T14:20:22.090Z,19.30
2022-10-15T14:22:49.159Z,19.10
2022-10-15T14:25:22.998Z,18.90
2022-10-15T14:27:49.697Z,18.70
2022-10-15T14:30:25.986Z,18.70
2022-10-15T14:32:52.781Z,18.60
2022-10-15T14:35:36.355Z,18.60
2022-10-15T14:38:16.543Z,18.60
2022-10-15T14:41:06.424Z,18.60
2022-10-15T14:43:36.654Z,18.60
2022-10-15T14:46:06.152Z,18.60
2022-10-15T14:48:35.967Z,18.50
2022-10-15T14:51:11.664Z,18.50
2022-10-15T14:53:44.150Z,18.50
2022-10-15T14:56:22.910Z,18.50
2022-10-15T14:58:56.615Z,18.70
2022-10-15T15:01:24.387Z,19.00
2022-10-15T15:03:53.627Z,19.10
2022-10-15T15:06:20.474Z,19.10
2022-10-15T15:08:47.476Z,19.10
2022-10-15T15:11:20.901Z,19.00
2022-10-15T15:13:47.834Z,18.90
2022-10-15T15:16:16.103Z,18.80
2022-10-15T15:18:43.787Z,18.70
2022-10-15T15:21:15.366Z,18.70
2022-10-15T15:23:43.073Z,18.70
2022-10-15T15:26:09.697Z,18.60
2022-10-15T15:28:36.349Z,18.60
2022-10-15T15:31:07.122Z,18.50
2022-10-15T15:33:34.799Z,18.50
2022-10-15T15:36:05.216Z,18.50
2022-10-15T15:38:31.913Z,18.40
2022-10-15T15:41:04.093Z,18.40
2022-10-15T15:43:30.990Z,18.30
2022-10-15T15:45:57.781Z,18.40
2022-10-15T15:48:24.447Z,18.30
2022-10-15T15:50:51.956Z,18.20
2022-10-15T15:53:18.837Z,18.20
2022-10-15T15:55:45.533Z,18.20
2022-10-15T15:58:12.177Z,18.10
2022-10-15T16:00:38.851Z,18.10
2022-10-15T16:03:05.473Z,18.10
2022-10-15T16:05:32.170Z,18.10
2022-10-15T16:07:59.027Z,18.00
2022-10-15T16:22:43.587Z,17.90
2022-10-15T16:25:10.738Z,17.90
2022-10-15T16:27:37.348Z,17.90
2022-10-15T16:30:04.454Z,17.90
2022-10-15T16:32:31.035Z,17.90
2022-10-15T16:34:57.616Z,17.80
2022-10-15T16:37:24.329Z,17.90
2022-10-15T16:39:51.152Z,17.90
2022-10-15T16:44:50.203Z,17.80
2022-10-15T16:47:16.829Z,17.80
2022-10-15T16:49:43.491Z,17.70
2022-10-15T16:52:10.368Z,17.70
2022-10-15T16:54:37.156Z,17.60
2022-10-15T16:57:03.859Z,17.50
2022-10-15T16:59:30.577Z,17.50
2022-10-15T17:01:57.303Z,17.50
2022-10-15T17:04:23.951Z,17.40
2022-10-15T17:06:50.584Z,17.50
2022-10-15T17:09:17.215Z,17.60
2022-10-15T17:11:46.844Z,17.50
2022-10-15T17:14:16.284Z,17.50
2022-10-15T17:16:44.216Z,17.60
2022-10-15T17:19:12.889Z,17.60
2022-10-15T17:21:42.331Z,17.60
2022-10-15T17:24:12.133Z,17.60
2022-10-15T17:26:40.551Z,17.60
2022-10-15T17:29:13.194Z,17.60
2022-10-15T17:31:40.188Z,17.60
2022-10-15T17:34:09.742Z,17.50
2022-10-15T17:36:42.991Z,17.60
2022-10-15T17:39:15.021Z,17.60
2022-10-15T17:41:42.041Z,17.50
2022-10-15T17:44:11.127Z,17.50
2022-10-15T17:46:38.733Z,17.50
2022-10-15T17:49:05.689Z,17.40
2022-10-15T17:51:33.165Z,17.60
2022-10-15T17:54:00.820Z,17.50
2022-10-15T17:56:33.282Z,17.50
2022-10-15T17:59:01.743Z,17.50
2022-10-15T18:01:56.653Z,17.50
2022-10-15T18:04:17.761Z,17.50
2022-10-15T18:06:45.325Z,17.50
2022-10-15T18:09:11.963Z,17.50
2022-10-15T18:11:38.642Z,17.60
2022-10-15T18:14:05.424Z,17.60
2022-10-15T18:16:32.586Z,17.60
2022-10-15T18:18:59.619Z,17.50
2022-10-15T18:21:27.365Z,17.50
2022-10-15T18:23:56.342Z,17.50
2022-10-15T18:26:23.771Z,17.50
2022-10-15T18:28:52.456Z,17.50
2022-10-15T18:31:19.588Z,17.50
2022-10-15T18:33:49.159Z,17.60
2022-10-15T18:36:23.026Z,17.40
2022-10-15T18:38:50.087Z,17.50
2022-10-15T18:41:28.295Z,17.50
2022-10-15T18:44:00.123Z,17.50
2022-10-15T18:46:27.782Z,17.50
2022-10-15T18:48:55.335Z,17.50
2022-10-15T18:51:22.590Z,17.50
2022-10-15T18:53:49.170Z,17.50
2022-10-15T18:56:15.802Z,17.50
2022-10-15T18:58:42.899Z,17.50
2022-10-15T19:01:26.754Z,17.60
2022-10-15T19:03:55.010Z,17.50
2022-10-15T19:06:27.279Z,17.50
2022-10-15T19:08:59.956Z,17.50
2022-10-15T19:11:26.779Z,17.50
2022-10-15T19:13:55.981Z,17.60
2022-10-15T19:16:22.715Z,17.60
2022-10-15T19:18:49.406Z,17.60
2022-10-15T19:21:16.029Z,17.60
2022-10-15T19:23:42.642Z,17.60
2022-10-15T19:26:11.100Z,17.60
2022-10-15T19:28:38.470Z,17.60
2022-10-15T19:31:07.493Z,17.50
2022-10-15T19:33:34.667Z,17.50
2022-10-15T19:36:01.381Z,17.50
2022-10-15T19:38:28.425Z,17.50
2022-10-15T19:40:55.764Z,17.40
2022-10-15T19:43:23.555Z,17.40
2022-10-15T19:45:50.248Z,17.40
2022-10-15T19:48:19.182Z,17.30
2022-10-15T19:50:47.083Z,17.30
2022-10-15T19:53:16.650Z,17.30
2022-10-15T19:55:54.365Z,17.20
2022-10-15T19:58:21.373Z,17.20
2022-10-15T20:00:52.907Z,17.20
2022-10-15T20:03:20.809Z,17.20
2022-10-15T20:05:47.911Z,17.20
2022-10-15T20:08:15.348Z,17.30
2022-10-15T20:10:47.309Z,17.20
2022-10-15T20:13:15.087Z,17.10
2022-10-15T20:15:42.862Z,17.10
2022-10-15T20:18:09.879Z,17.10
2022-10-15T20:20:38.245Z,17.00
2022-10-15T20:23:05.011Z,17.00
2022-10-15T20:25:31.978Z,16.90
2022-10-15T20:27:59.329Z,17.00
2022-10-15T20:30:26.044Z,16.90
2022-10-15T20:32:52.698Z,16.80
2022-10-15T20:35:20.242Z,16.90
2022-10-15T20:37:47.467Z,16.70
2022-10-15T20:40:14.822Z,16.70
2022-10-15T20:42:41.536Z,16.70
2022-10-15T20:45:11.244Z,16.70
2022-10-15T20:47:42.407Z,16.70
2022-10-15T20:50:24.156Z,16.70
2022-10-15T20:52:50.832Z,16.70
2022-10-15T20:55:17.681Z,16.70
2022-10-15T20:57:44.350Z,16.70
2022-10-15T21:00:11.590Z,16.70
2022-10-15T21:02:38.259Z,16.70
2022-10-15T21:05:05.299Z,16.70
2022-10-15T21:07:31.939Z,16.80
2022-10-15T21:09:58.760Z,16.80
2022-10-15T21:12:26.079Z,16.80
2022-10-15T21:14:53.021Z,16.90
2022-10-15T21:17:19.958Z,17.00
2022-10-15T21:19:50.335Z,16.90
2022-10-15T21:22:19.375Z,16.90
2022-10-15T21:24:46.031Z,17.00
2022-10-15T21:27:12.637Z,16.90
2022-10-15T21:29:39.357Z,17.00
2022-10-15T21:32:06.011Z,16.80
2022-10-15T21:34:32.642Z,16.90
2022-10-15T21:36:59.386Z,16.90
2022-10-15T21:39:26.022Z,16.90
2022-10-15T21:41:52.624Z,16.90
2022-10-15T21:44:19.231Z,16.70
2022-10-15T21:46:46.351Z,16.80
2022-10-15T21:49:14.097Z,16.80
2022-10-15T21:51:41.083Z,16.80
2022-10-15T21:54:09.190Z,16.90
2022-10-15T21:56:37.018Z,16.90
2022-10-15T21:59:04.591Z,16.90
2022-10-15T22:01:33.510Z,16.90
2022-10-15T22:04:05.855Z,16.90
2022-10-15T22:06:33.107Z,16.90
2022-10-15T22:09:00.060Z,16.90
2022-10-15T22:11:29.229Z,16.90
2022-10-15T22:13:59.188Z,16.90
2022-10-15T22:16:28.121Z,17.00
2022-10-15T22:18:55.690Z,16.90
2022-10-15T22:21:25.124Z,16.90
2022-10-15T22:24:06.937Z,16.90
2022-10-15T22:26:36.918Z,16.90
2022-10-15T22:29:05.730Z,17.00
2022-10-15T22:31:32.988Z,16.90
2022-10-15T22:34:00.105Z,16.90
2022-10-15T22:36:29.263Z,16.90
2022-10-15T22:39:01.143Z,16.90
2022-10-15T22:41:41.748Z,16.80
2022-10-15T22:44:11.403Z,16.80
2022-10-15T22:46:39.239Z,16.80
2022-10-15T22:49:07.529Z,16.90
2022-10-15T22:51:34.250Z,16.80
2022-10-15T22:54:01.648Z,16.70
2022-10-15T22:56:29.276Z,16.70
2022-10-15T22:58:56.986Z,16.70
2022-10-15T23:01:29.152Z,16.70
2022-10-15T23:03:58.620Z,16.70
2022-10-15T23:06:26.313Z,16.70
2022-10-15T23:08:53.293Z,16.60
2022-10-15T23:11:31.007Z,16.60
2022-10-15T23:14:01.452Z,16.60
2022-10-15T23:16:31.374Z,16.60
2022-10-15T23:19:01.092Z,16.60
2022-10-15T23:21:34.945Z,16.60
2022-10-15T23:24:02.141Z,16.60
2022-10-15T23:29:03.812Z,16.60
2022-10-15T23:31:35.180Z,16.50
2022-10-15T23:34:03.124Z,16.60
2022-10-15T23:36:30.460Z,16.60
2022-10-15T23:39:02.750Z,16.60
2022-10-15T23:41:30.353Z,16.60
2022-10-15T23:43:57.257Z,16.60
2022-10-15T23:46:23.938Z,16.60
2022-10-15T23:48:52.266Z,16.70
2022-10-15T23:51:22.914Z,16.60
2022-10-15T23:53:50.619Z,16.70
2022-10-15T23:56:17.954Z,16.60
2022-10-15T23:58:52.381Z,16.70
